Terminal Aerodrome Forecast
Issued by NWS

Home | Current Version | Previous Version | Text Only | Print | Product List | Glossary On
Versions: 1 2 3 4 5 6 7 8 9 10 11 12 13
350
FTUS43 KPAH 251126
TAFCGI
TAF
KCGI 251126Z 2512/2612 26002KT P6SM SKC
     FM251700 31009G16KT P6SM SCT090
     FM260100 36006KT P6SM FEW090 BKN130=

USA.gov is the U.S. government's official web portal to all federal, state and local government web resources and services.